createdAt,value
2023-04-23T00:01:09.520Z,11.02
2023-04-23T00:03:41.501Z,11.00
2023-04-23T00:06:13.122Z,10.99
2023-04-23T00:08:43.707Z,10.95
2023-04-23T00:11:16.553Z,10.93
2023-04-23T00:13:47.550Z,10.90
2023-04-23T00:16:17.996Z,10.90
2023-04-23T00:18:47.939Z,10.87
2023-04-23T00:21:17.672Z,10.89
2023-04-23T00:23:47.403Z,10.92
2023-04-23T00:26:20.325Z,10.90
2023-04-23T00:28:50.085Z,10.91
2023-04-23T00:31:19.794Z,10.87
2023-04-23T00:33:49.460Z,10.89
2023-04-23T00:36:20.119Z,10.89
2023-04-23T00:38:49.905Z,10.88
2023-04-23T00:41:22.451Z,10.85
2023-04-23T00:43:53.102Z,10.82
2023-04-23T00:46:23.291Z,10.80
2023-04-23T00:48:53.925Z,10.78
2023-04-23T00:51:24.641Z,10.80
2023-04-23T00:53:54.784Z,10.79
2023-04-23T00:56:28.081Z,10.78
2023-04-23T00:58:58.270Z,10.76
2023-04-23T01:01:28.573Z,10.74
2023-04-23T01:03:58.470Z,10.74
2023-04-23T01:06:30.137Z,10.76
2023-04-23T01:08:59.991Z,10.74
2023-04-23T01:11:32.622Z,10.71
2023-04-23T01:14:02.492Z,10.65
2023-04-23T01:16:32.265Z,10.64
2023-04-23T01:19:02.341Z,10.63
2023-04-23T01:21:33.692Z,10.62
2023-04-23T01:24:06.130Z,10.60
2023-04-23T01:26:36.582Z,10.59
2023-04-23T01:29:06.531Z,10.57
2023-04-23T01:31:36.301Z,10.56
2023-04-23T01:34:06.181Z,10.54
2023-04-23T01:36:36.202Z,10.55
2023-04-23T01:39:09.177Z,10.52
2023-04-23T01:41:39.156Z,10.49
2023-04-23T01:44:08.973Z,10.47
2023-04-23T01:46:38.762Z,10.41
2023-04-23T01:49:08.606Z,10.40
2023-04-23T01:51:38.404Z,10.38
2023-04-23T01:54:10.755Z,10.36
2023-04-23T01:56:40.601Z,10.34
2023-04-23T01:59:10.283Z,10.29
2023-04-23T02:01:48.120Z,10.23
2023-04-23T02:04:18.577Z,10.18
2023-04-23T02:06:54.025Z,10.13
2023-04-23T02:09:26.897Z,10.11
2023-04-23T02:11:57.859Z,10.08
2023-04-23T02:14:27.572Z,10.06
2023-04-23T02:16:57.904Z,10.02
2023-04-23T02:19:28.036Z,10.02
2023-04-23T02:21:58.224Z,10.00
2023-04-23T02:24:30.611Z,9.99
2023-04-23T02:27:00.602Z,9.95
2023-04-23T02:29:30.397Z,9.93
2023-04-23T02:32:00.293Z,9.92
2023-04-23T02:34:30.108Z,9.89
2023-04-23T02:36:59.817Z,9.88
2023-04-23T02:39:32.154Z,9.86
2023-04-23T02:42:02.410Z,9.82
2023-04-23T02:44:32.170Z,9.80
2023-04-23T02:47:01.928Z,9.74
2023-04-23T02:49:31.762Z,9.71
2023-04-23T02:52:01.674Z,9.68
2023-04-23T02:54:34.506Z,9.67
2023-04-23T02:57:04.469Z,9.65
2023-04-23T02:59:34.370Z,9.61
2023-04-23T03:02:04.617Z,9.61
2023-04-23T03:04:34.469Z,9.60
2023-04-23T03:07:04.189Z,9.58
2023-04-23T03:09:38.232Z,9.56
2023-04-23T03:12:08.210Z,9.56
2023-04-23T03:14:38.469Z,9.53
2023-04-23T03:17:08.315Z,9.51
2023-04-23T03:19:38.077Z,9.49
2023-04-23T03:22:08.384Z,9.43
2023-04-23T03:24:40.987Z,9.42
2023-04-23T03:27:11.957Z,9.42
2023-04-23T03:29:42.013Z,9.41
2023-04-23T03:32:11.856Z,9.42
2023-04-23T03:34:42.174Z,9.42
2023-04-23T03:37:12.103Z,9.41
2023-04-23T03:39:44.885Z,9.42
2023-04-23T03:42:15.123Z,9.44
2023-04-23T03:44:45.322Z,9.43
2023-04-23T03:47:15.024Z,9.43
2023-04-23T03:49:44.664Z,9.46
2023-04-23T03:52:14.412Z,9.46
2023-04-23T03:54:47.520Z,9.46
2023-04-23T03:57:20.400Z,9.49
2023-04-23T03:59:59.420Z,9.52
2023-04-23T04:02:29.494Z,9.57
2023-04-23T04:04:59.598Z,9.63
2023-04-23T04:07:29.770Z,9.67
2023-04-23T04:10:03.290Z,9.72
2023-04-23T04:12:32.994Z,9.76
2023-04-23T04:15:03.368Z,9.77
2023-04-23T04:17:33.339Z,9.80
2023-04-23T04:20:03.151Z,9.81
2023-04-23T04:22:32.932Z,9.83
2023-04-23T04:25:05.383Z,9.83
2023-04-23T04:27:36.062Z,9.83
2023-04-23T04:30:06.203Z,9.82
2023-04-23T04:32:35.981Z,9.85
2023-04-23T04:35:05.671Z,9.85
2023-04-23T04:37:35.541Z,9.86
2023-04-23T04:40:11.589Z,9.85
2023-04-23T04:42:42.829Z,9.85
2023-04-23T04:45:13.479Z,9.86
2023-04-23T04:47:43.192Z,9.86
2023-04-23T04:50:14.129Z,9.85
2023-04-23T04:52:43.833Z,9.86
2023-04-23T04:55:16.163Z,9.88
2023-04-23T04:57:45.896Z,9.89
2023-04-23T05:00:23.415Z,9.90
2023-04-23T05:02:53.538Z,9.92
2023-04-23T05:05:27.512Z,9.94
2023-04-23T05:07:59.375Z,9.97
2023-04-23T05:10:32.468Z,9.99
2023-04-23T05:13:03.056Z,10.04
2023-04-23T05:15:32.875Z,10.08
2023-04-23T05:18:02.725Z,10.14
2023-04-23T05:20:32.492Z,10.18
2023-04-23T05:23:02.948Z,10.21
2023-04-23T05:25:35.810Z,10.27
2023-04-23T05:28:05.646Z,10.31
2023-04-23T05:30:36.064Z,10.35
2023-04-23T05:33:05.868Z,10.41
2023-04-23T05:35:35.843Z,10.45
2023-04-23T05:38:06.548Z,10.48
2023-04-23T05:40:38.881Z,10.51
2023-04-23T05:43:08.926Z,10.54
2023-04-23T05:45:38.706Z,10.57
2023-04-23T05:48:08.428Z,10.60
2023-04-23T05:50:38.107Z,10.62
2023-04-23T05:53:07.777Z,10.66
2023-04-23T05:55:40.021Z,10.70
2023-04-23T05:58:09.951Z,10.73
2023-04-23T06:00:40.961Z,10.77
2023-04-23T06:03:11.110Z,10.78
2023-04-23T06:05:43.299Z,10.83
2023-04-23T06:08:13.133Z,10.86
2023-04-23T06:10:45.482Z,10.87
2023-04-23T06:13:15.303Z,10.88
2023-04-23T06:15:44.943Z,10.87
2023-04-23T06:18:14.796Z,10.92
2023-04-23T06:20:46.066Z,10.97
2023-04-23T06:23:16.730Z,10.99
2023-04-23T06:25:49.955Z,11.03
2023-04-23T06:28:21.077Z,11.08
2023-04-23T06:31:15.067Z,11.11
2023-04-23T06:33:45.776Z,11.17
2023-04-23T06:36:16.922Z,11.22
2023-04-23T06:38:47.773Z,11.27
2023-04-23T06:41:21.603Z,11.30
2023-04-23T06:44:03.878Z,11.35
2023-04-23T06:46:39.160Z,11.40
2023-04-23T06:49:09.881Z,11.45
2023-04-23T06:51:40.411Z,11.49
2023-04-23T06:54:11.157Z,11.56
2023-04-23T06:56:44.202Z,11.64
2023-04-23T06:59:14.839Z,11.68
2023-04-23T07:01:50.550Z,11.76
2023-04-23T07:04:21.349Z,11.86
2023-04-23T07:06:52.536Z,11.95
2023-04-23T07:09:23.505Z,12.02
2023-04-23T07:11:56.669Z,12.09
2023-04-23T07:14:28.514Z,12.13
2023-04-23T07:16:59.613Z,12.17
2023-04-23T07:19:30.399Z,12.22
2023-04-23T07:22:01.857Z,12.29
2023-04-23T07:24:32.754Z,12.31
2023-04-23T07:27:06.402Z,12.35
2023-04-23T07:29:37.728Z,12.42
2023-04-23T07:32:08.650Z,12.49
2023-04-23T07:34:40.022Z,12.52
2023-04-23T07:37:11.496Z,12.62
2023-04-23T07:39:44.195Z,12.70
2023-04-23T07:42:18.466Z,12.81
2023-04-23T07:44:49.260Z,12.88
2023-04-23T07:47:19.900Z,13.01
2023-04-23T07:49:51.055Z,13.11
2023-04-23T07:52:21.603Z,13.18
2023-04-23T07:54:52.772Z,13.27
2023-04-23T07:57:26.213Z,13.38
2023-04-23T07:59:56.983Z,13.52
2023-04-23T08:05:55.203Z,13.69
2023-04-23T08:08:26.019Z,13.82
2023-04-23T08:10:55.951Z,13.93
2023-04-23T08:13:28.911Z,14.08
2023-04-23T08:15:58.860Z,14.22
2023-04-23T08:18:28.646Z,14.42
2023-04-23T08:20:59.600Z,14.42
2023-04-23T08:23:29.434Z,14.43
2023-04-23T08:25:59.283Z,14.61
2023-04-23T08:28:31.653Z,14.65
2023-04-23T08:31:03.928Z,14.67
2023-04-23T08:33:39.179Z,14.87
2023-04-23T08:36:09.321Z,14.93
2023-04-23T08:38:39.026Z,15.05
2023-04-23T08:41:09.710Z,15.15
2023-04-23T08:43:48.152Z,15.23
2023-04-23T08:46:18.895Z,15.27
2023-04-23T08:48:49.266Z,15.22
2023-04-23T08:51:21.686Z,15.31
2023-04-23T08:53:54.639Z,15.36
2023-04-23T08:56:24.500Z,15.46
2023-04-23T08:58:57.182Z,15.55
2023-04-23T09:01:27.334Z,15.53
2023-04-23T09:03:57.335Z,15.45
2023-04-23T09:06:27.280Z,15.53
2023-04-23T09:08:58.417Z,15.66
2023-04-23T09:11:30.379Z,15.47
2023-04-23T09:14:02.748Z,15.62
2023-04-23T09:16:32.556Z,15.65
2023-04-23T09:19:02.300Z,15.85
2023-04-23T09:21:32.027Z,15.76
2023-04-23T09:24:01.998Z,15.95
2023-04-23T09:26:31.616Z,16.16
2023-04-23T09:29:03.909Z,16.03
2023-04-23T09:31:33.663Z,15.96
2023-04-23T09:34:03.414Z,16.13
2023-04-23T09:36:36.397Z,16.17
2023-04-23T09:39:06.330Z,16.01
2023-04-23T09:41:36.037Z,16.02
2023-04-23T09:44:08.977Z,16.02
2023-04-23T09:46:40.051Z,16.20
2023-04-23T09:49:10.945Z,16.25
2023-04-23T09:51:41.018Z,16.25
2023-04-23T09:54:15.049Z,16.02
2023-04-23T09:56:45.429Z,15.82
2023-04-23T09:59:45.946Z,15.78
2023-04-23T10:02:17.861Z,15.68
2023-04-23T10:04:48.235Z,15.66
2023-04-23T10:07:20.426Z,15.58
2023-04-23T10:09:50.876Z,15.57
2023-04-23T10:12:41.168Z,15.59
2023-04-23T10:15:14.256Z,15.94
2023-04-23T10:17:44.378Z,15.98
2023-04-23T10:20:15.001Z,15.92
2023-04-23T10:22:48.150Z,15.93
2023-04-23T10:25:18.382Z,16.08
2023-04-23T10:27:52.659Z,16.26
2023-04-23T10:30:26.497Z,16.15
2023-04-23T10:32:57.188Z,16.35
2023-04-23T10:35:27.522Z,16.55
2023-04-23T10:37:57.207Z,16.48
2023-04-23T10:40:29.524Z,16.40
2023-04-23T10:42:59.362Z,16.45
2023-04-23T10:45:33.808Z,16.30
2023-04-23T10:48:04.569Z,16.23
2023-04-23T10:50:47.691Z,16.39
2023-04-23T10:53:28.008Z,16.49
2023-04-23T10:56:09.512Z,16.57
2023-04-23T10:58:52.463Z,16.58
2023-04-23T11:01:27.598Z,16.54
2023-04-23T11:03:57.509Z,16.50
2023-04-23T11:06:55.259Z,16.48
2023-04-23T11:09:32.439Z,16.42
2023-04-23T11:12:02.766Z,16.35
2023-04-23T11:14:40.231Z,16.39
2023-04-23T11:17:14.723Z,16.30
2023-04-23T11:19:45.546Z,16.32
2023-04-23T11:22:20.690Z,16.39
2023-04-23T11:24:51.022Z,16.27
2023-04-23T11:27:21.777Z,16.47
2023-04-23T11:29:51.482Z,16.54
2023-04-23T11:32:24.796Z,16.47
2023-04-23T11:34:54.766Z,16.61
2023-04-23T11:37:24.463Z,16.87
2023-04-23T11:39:54.172Z,16.99
2023-04-23T11:42:23.882Z,17.10
2023-04-23T11:44:53.717Z,17.12
2023-04-23T11:47:28.973Z,17.11
2023-04-23T11:49:58.737Z,17.18
2023-04-23T11:52:29.725Z,17.08
2023-04-23T11:54:59.502Z,17.04
2023-04-23T11:57:29.185Z,16.95
2023-04-23T11:59:58.876Z,16.88
2023-04-23T12:02:31.399Z,16.92
2023-04-23T12:05:10.250Z,16.89
2023-04-23T12:07:40.079Z,16.90
2023-04-23T12:10:10.686Z,16.90
2023-04-23T12:12:40.815Z,17.01
2023-04-23T12:15:11.837Z,17.06
2023-04-23T12:17:44.318Z,17.27
2023-04-23T12:20:20.007Z,17.54
2023-04-23T12:22:50.320Z,17.76
2023-04-23T12:25:20.022Z,17.68
2023-04-23T12:27:49.715Z,17.53
2023-04-23T12:30:19.470Z,17.60
2023-04-23T12:32:51.879Z,17.68
2023-04-23T12:35:22.679Z,17.59
2023-04-23T12:37:53.148Z,17.65
2023-04-23T12:40:23.031Z,17.64
2023-04-23T12:42:52.718Z,17.63
2023-04-23T12:45:22.475Z,17.69
2023-04-23T12:47:54.768Z,17.80
2023-04-23T12:50:24.590Z,18.10
2023-04-23T12:52:54.280Z,18.00
2023-04-23T12:55:24.100Z,17.97
2023-04-23T12:57:53.833Z,18.03
2023-04-23T13:00:23.680Z,18.13
2023-04-23T13:02:56.502Z,18.21
2023-04-23T13:05:26.475Z,18.43
2023-04-23T13:07:57.027Z,18.33
2023-04-23T13:10:26.948Z,18.40
2023-04-23T13:12:56.698Z,18.42
2023-04-23T13:15:27.160Z,18.36
2023-04-23T13:17:59.803Z,18.38
2023-04-23T13:20:30.057Z,18.29
2023-04-23T13:22:59.790Z,17.98
2023-04-23T13:25:29.437Z,17.87
2023-04-23T13:27:59.256Z,17.89
2023-04-23T13:30:28.951Z,18.14
2023-04-23T13:33:01.611Z,18.12
2023-04-23T13:35:31.547Z,18.31
2023-04-23T13:38:02.179Z,18.46
2023-04-23T13:40:31.911Z,18.46
2023-04-23T13:43:01.642Z,18.38
2023-04-23T13:45:31.419Z,18.27
2023-04-23T13:48:05.190Z,18.31
2023-04-23T13:50:35.182Z,18.15
2023-04-23T13:53:05.090Z,18.22
2023-04-23T13:55:34.772Z,18.13
2023-04-23T13:58:04.509Z,18.05
2023-04-23T14:00:34.332Z,18.05
2023-04-23T14:03:06.881Z,18.04
2023-04-23T14:05:36.905Z,17.83
2023-04-23T14:08:06.634Z,17.76
2023-04-23T14:10:36.887Z,17.85
2023-04-23T14:13:06.975Z,17.76
2023-04-23T14:15:36.750Z,17.72
2023-04-23T14:18:09.148Z,17.86
2023-04-23T14:20:39.054Z,17.83
2023-04-23T14:23:36.845Z,17.76
2023-04-23T14:26:07.905Z,17.75
2023-04-23T14:28:42.145Z,17.85
2023-04-23T14:31:11.922Z,17.85
2023-04-23T14:33:44.278Z,17.96
2023-04-23T14:36:14.000Z,17.92
2023-04-23T14:38:43.843Z,17.80
2023-04-23T14:41:13.541Z,17.74
2023-04-23T14:43:43.213Z,17.79
2023-04-23T14:46:13.239Z,17.80
2023-04-23T14:48:46.124Z,17.77
2023-04-23T14:51:16.187Z,17.73
2023-04-23T14:53:45.885Z,17.59
2023-04-23T14:56:15.631Z,17.56
2023-04-23T14:58:45.361Z,17.49
2023-04-23T15:01:15.068Z,17.52
2023-04-23T15:03:47.836Z,17.51
2023-04-23T15:06:17.623Z,17.41
2023-04-23T15:08:47.346Z,17.43
2023-04-23T15:11:17.143Z,17.42
2023-04-23T15:13:55.805Z,17.48
2023-04-23T15:19:10.230Z,17.41
2023-04-23T15:21:42.543Z,17.35
2023-04-23T15:24:12.972Z,17.28
2023-04-23T15:26:42.890Z,17.19
2023-04-23T15:29:13.802Z,17.06
2023-04-23T15:31:43.957Z,17.09
2023-04-23T15:34:16.312Z,17.07
2023-04-23T15:36:46.349Z,16.99
2023-04-23T15:39:16.013Z,16.81
2023-04-23T15:41:46.451Z,16.74
2023-04-23T15:44:16.214Z,16.47
2023-04-23T15:46:46.349Z,16.41
2023-04-23T15:49:18.611Z,16.18
2023-04-23T15:51:48.371Z,16.07
2023-04-23T15:54:18.156Z,15.89
2023-04-23T15:56:47.852Z,15.75
2023-04-23T15:59:17.516Z,15.54
2023-04-23T16:01:47.262Z,15.52
2023-04-23T16:04:19.931Z,15.47
2023-04-23T16:06:49.836Z,15.44
2023-04-23T16:09:19.508Z,15.48
2023-04-23T16:11:49.319Z,15.51
2023-04-23T16:14:18.997Z,15.50
2023-04-23T16:16:48.741Z,15.33
2023-04-23T16:19:20.976Z,15.34
2023-04-23T16:21:51.023Z,15.24
2023-04-23T16:24:22.358Z,15.17
2023-04-23T16:26:52.772Z,15.14
2023-04-23T16:29:23.156Z,15.11
2023-04-23T16:31:53.167Z,15.03
2023-04-23T16:34:25.442Z,14.91
2023-04-23T16:36:55.335Z,14.83
2023-04-23T16:39:25.184Z,14.67
2023-04-23T16:41:54.901Z,14.55
2023-04-23T16:44:24.849Z,14.40
2023-04-23T16:46:56.803Z,14.38
2023-04-23T16:49:29.219Z,14.36
2023-04-23T16:51:59.247Z,14.31
2023-04-23T16:54:29.251Z,14.31
2023-04-23T16:56:59.015Z,14.31
2023-04-23T16:59:28.894Z,14.30
2023-04-23T17:01:58.628Z,14.28
2023-04-23T17:04:31.254Z,14.19
2023-04-23T17:07:01.375Z,14.11
2023-04-23T17:09:31.893Z,13.98
2023-04-23T17:12:02.618Z,13.80
2023-04-23T17:14:32.415Z,13.75
2023-04-23T17:17:02.156Z,13.66
2023-04-23T17:19:35.317Z,13.58
2023-04-23T17:22:06.411Z,13.50
2023-04-23T17:24:37.766Z,13.46
2023-04-23T17:27:09.120Z,13.35
2023-04-23T17:29:39.002Z,13.30
2023-04-23T17:32:09.244Z,13.17
2023-04-23T17:34:42.978Z,13.04
2023-04-23T17:37:12.930Z,12.89
2023-04-23T17:39:43.111Z,12.79
2023-04-23T17:42:13.688Z,12.65
2023-04-23T17:44:43.830Z,12.71
2023-04-23T17:47:14.268Z,12.71
2023-04-23T17:49:46.586Z,12.64
2023-04-23T17:52:16.319Z,12.62
2023-04-23T17:54:46.207Z,12.53
2023-04-23T17:57:16.540Z,12.53
2023-04-23T17:59:46.280Z,12.54
2023-04-23T18:02:16.319Z,12.49
2023-04-23T18:04:48.703Z,12.48
2023-04-23T18:07:18.413Z,12.47
2023-04-23T18:09:48.394Z,12.42
2023-04-23T18:12:18.705Z,12.41
2023-04-23T18:14:48.434Z,12.38
2023-04-23T18:17:19.237Z,12.38
2023-04-23T18:22:48.295Z,12.22
2023-04-23T18:25:18.105Z,12.26
2023-04-23T18:27:47.821Z,12.21
2023-04-23T18:30:23.195Z,12.18
2023-04-23T18:32:58.690Z,12.18
2023-04-23T18:35:32.082Z,12.15
2023-04-23T18:38:07.869Z,12.09
2023-04-23T18:40:37.745Z,12.09
2023-04-23T18:43:07.504Z,12.09
2023-04-23T18:45:37.586Z,12.05
2023-04-23T18:48:41.749Z,12.04
2023-04-23T18:51:23.535Z,12.04
2023-04-23T18:53:53.662Z,12.00
2023-04-23T18:56:25.271Z,12.05
2023-04-23T18:58:55.744Z,12.04
2023-04-23T19:01:28.090Z,12.08
2023-04-23T19:03:59.636Z,12.04
2023-04-23T19:06:35.402Z,12.00
2023-04-23T19:09:05.719Z,12.03
2023-04-23T19:11:38.286Z,12.01
2023-04-23T19:14:08.235Z,11.95
2023-04-23T19:16:38.404Z,11.92
2023-04-23T19:19:08.370Z,11.95
2023-04-23T19:21:41.184Z,11.97
2023-04-23T19:24:11.474Z,11.94
2023-04-23T19:26:41.497Z,11.95
2023-04-23T19:29:11.630Z,11.98
2023-04-23T19:31:42.152Z,11.94
2023-04-23T19:34:16.557Z,11.93
2023-04-23T19:36:49.064Z,11.93
2023-04-23T19:39:19.117Z,11.89
2023-04-23T19:41:48.936Z,11.91
2023-04-23T19:44:18.680Z,11.91
2023-04-23T19:46:48.476Z,11.89
2023-04-23T19:49:18.200Z,11.84
2023-04-23T19:51:50.899Z,11.83
2023-04-23T19:54:22.213Z,11.82
2023-04-23T19:56:53.250Z,11.79
2023-04-23T19:59:23.969Z,11.81
2023-04-23T20:01:54.253Z,11.82
2023-04-23T20:04:24.076Z,11.81
2023-04-23T20:06:56.576Z,11.82
2023-04-23T20:09:26.330Z,11.74
2023-04-23T20:11:56.085Z,11.77
2023-04-23T20:14:25.918Z,11.80
2023-04-23T20:16:55.805Z,11.77
2023-04-23T20:19:26.050Z,11.74
2023-04-23T20:21:58.562Z,11.71
2023-04-23T20:24:28.482Z,11.70
2023-04-23T20:26:58.774Z,11.65
2023-04-23T20:29:28.465Z,11.59
2023-04-23T20:31:58.234Z,11.55
2023-04-23T20:34:27.952Z,11.53
2023-04-23T20:37:00.367Z,11.50
2023-04-23T20:39:30.318Z,11.43
2023-04-23T20:42:01.083Z,11.47
2023-04-23T20:44:30.859Z,11.44
2023-04-23T20:47:04.538Z,11.44
2023-04-23T20:49:34.876Z,11.39
2023-04-23T20:52:07.280Z,11.42
2023-04-23T20:54:37.442Z,11.39
2023-04-23T20:57:07.240Z,11.40
2023-04-23T20:59:36.959Z,11.41
2023-04-23T21:02:07.452Z,11.41
2023-04-23T21:04:37.506Z,11.41
2023-04-23T21:07:10.089Z,11.42
2023-04-23T21:09:40.177Z,11.43
2023-04-23T21:12:10.151Z,11.45
2023-04-23T21:14:39.870Z,11.42
2023-04-23T21:17:09.626Z,11.48
2023-04-23T21:19:39.338Z,11.48
2023-04-23T21:22:11.796Z,11.48
2023-04-23T21:24:41.550Z,11.47
2023-04-23T21:27:11.477Z,11.47
2023-04-23T21:29:41.684Z,11.45
2023-04-23T21:32:11.565Z,11.44
2023-04-23T21:34:41.268Z,11.43
2023-04-23T21:37:13.573Z,11.46
2023-04-23T21:39:43.584Z,11.43
2023-04-23T21:42:13.558Z,11.36
2023-04-23T21:44:43.360Z,11.38
2023-04-23T21:47:13.344Z,11.29
2023-04-23T21:49:43.659Z,11.21
2023-04-23T21:52:17.527Z,11.20
2023-04-23T21:54:47.343Z,11.15
2023-04-23T21:57:17.106Z,11.14
2023-04-23T21:59:46.887Z,11.10
2023-04-23T22:02:16.650Z,11.02
2023-04-23T22:04:46.756Z,11.00
2023-04-23T22:07:19.766Z,10.93
2023-04-23T22:09:49.647Z,10.92
2023-04-23T22:12:19.322Z,10.91
2023-04-23T22:14:49.012Z,10.92
2023-04-23T22:17:18.887Z,10.91
2023-04-23T22:19:49.195Z,10.88
2023-04-23T22:22:21.521Z,10.85
2023-04-23T22:24:51.452Z,10.85
2023-04-23T22:27:23.313Z,10.84
2023-04-23T22:29:53.048Z,10.81
2023-04-23T22:32:22.793Z,10.78
2023-04-23T22:34:52.965Z,10.84
2023-04-23T22:37:25.521Z,10.86
2023-04-23T22:39:55.271Z,10.85
2023-04-23T22:42:24.984Z,10.83
2023-04-23T22:44:54.700Z,10.85
2023-04-23T22:47:24.496Z,10.87
2023-04-23T22:49:54.348Z,10.84
2023-04-23T22:52:27.043Z,10.87
2023-04-23T22:54:57.530Z,10.90
2023-04-23T22:57:27.363Z,10.89
2023-04-23T22:59:57.022Z,10.89
2023-04-23T23:02:26.998Z,10.89
2023-04-23T23:04:56.833Z,10.87
2023-04-23T23:07:29.168Z,10.89
2023-04-23T23:09:58.930Z,10.91
2023-04-23T23:12:28.636Z,10.89
2023-04-23T23:14:58.440Z,10.88
2023-04-23T23:17:28.647Z,10.91
2023-04-23T23:19:58.363Z,10.89
2023-04-23T23:22:31.043Z,10.88
2023-04-23T23:25:00.827Z,10.87
2023-04-23T23:27:30.601Z,10.86
2023-04-23T23:30:05.764Z,10.83
2023-04-23T23:32:35.800Z,10.81
2023-04-23T23:35:06.576Z,10.80
2023-04-23T23:37:39.254Z,10.79
2023-04-23T23:40:11.105Z,10.78
2023-04-23T23:42:41.004Z,10.80
2023-04-23T23:45:11.989Z,10.78
2023-04-23T23:47:41.756Z,10.77
2023-04-23T23:50:12.691Z,10.78
2023-04-23T23:52:45.154Z,10.75
2023-04-23T23:55:14.902Z,10.77
2023-04-23T23:57:44.654Z,10.77
